sensor_id;sensor_type;location;lat;lon;timestamp;temperature;humidity
2997;DHT22;1508;48.744;9.110;2023-02-01T00:02:14;3.20;99.90
2997;DHT22;1508;48.744;9.110;2023-02-01T00:04:59;3.20;99.90
2997;DHT22;1508;48.744;9.110;2023-02-01T00:07:47;3.20;99.90
2997;DHT22;1508;48.744;9.110;2023-02-01T00:10:33;3.30;99.90
2997;DHT22;1508;48.744;9.110;2023-02-01T00:13:19;3.30;99.90
2997;DHT22;1508;48.744;9.110;2023-02-01T00:16:14;3.30;99.90
2997;DHT22;1508;48.744;9.110;2023-02-01T00:21:48;3.30;99.90
2997;DHT22;1508;48.744;9.110;2023-02-01T00:24:33;3.30;99.90
2997;DHT22;1508;48.744;9.110;2023-02-01T00:27:19;3.30;99.90
2997;DHT22;1508;48.744;9.110;2023-02-01T00:30:06;3.30;99.90
2997;DHT22;1508;48.744;9.110;2023-02-01T00:32:51;3.30;99.90
2997;DHT22;1508;48.744;9.110;2023-02-01T00:35:37;3.30;99.90
2997;DHT22;1508;48.744;9.110;2023-02-01T00:38:24;3.30;99.90
2997;DHT22;1508;48.744;9.110;2023-02-01T00:43:57;3.40;99.90
2997;DHT22;1508;48.744;9.110;2023-02-01T00:46:43;3.40;99.90
2997;DHT22;1508;48.744;9.110;2023-02-01T00:49:29;3.40;99.90
2997;DHT22;1508;48.744;9.110;2023-02-01T00:52:14;3.40;99.90
2997;DHT22;1508;48.744;9.110;2023-02-01T00:55:00;3.40;99.90
2997;DHT22;1508;48.744;9.110;2023-02-01T00:57:46;3.40;99.90
2997;DHT22;1508;48.744;9.110;2023-02-01T01:00:32;3.40;99.90
2997;DHT22;1508;48.744;9.110;2023-02-01T01:03:18;3.40;99.90
2997;DHT22;1508;48.744;9.110;2023-02-01T01:06:07;3.50;99.90
2997;DHT22;1508;48.744;9.110;2023-02-01T01:08:54;3.50;99.90
2997;DHT22;1508;48.744;9.110;2023-02-01T01:11:40;3.50;99.90
2997;DHT22;1508;48.744;9.110;2023-02-01T01:14:26;3.50;99.90
2997;DHT22;1508;48.744;9.110;2023-02-01T01:17:12;3.60;99.90
2997;DHT22;1508;48.744;9.110;2023-02-01T01:19:58;3.50;99.90
2997;DHT22;1508;48.744;9.110;2023-02-01T01:22:44;3.50;99.90
2997;DHT22;1508;48.744;9.110;2023-02-01T01:25:30;3.50;99.90
2997;DHT22;1508;48.744;9.110;2023-02-01T01:28:16;3.50;99.90
2997;DHT22;1508;48.744;9.110;2023-02-01T01:31:02;3.50;99.90
2997;DHT22;1508;48.744;9.110;2023-02-01T01:33:50;3.50;99.90
2997;DHT22;1508;48.744;9.110;2023-02-01T01:36:36;3.40;99.90
2997;DHT22;1508;48.744;9.110;2023-02-01T01:39:22;3.50;99.90
2997;DHT22;1508;48.744;9.110;2023-02-01T01:42:11;3.50;99.90
2997;DHT22;1508;48.744;9.110;2023-02-01T01:45:05;3.50;99.90
2997;DHT22;1508;48.744;9.110;2023-02-01T01:48:22;3.50;99.90
2997;DHT22;1508;48.744;9.110;2023-02-01T01:51:10;3.50;99.90
2997;DHT22;1508;48.744;9.110;2023-02-01T01:54:15;3.50;99.90
2997;DHT22;1508;48.744;9.110;2023-02-01T01:57:09;3.50;99.90
2997;DHT22;1508;48.744;9.110;2023-02-01T02:00:04;3.50;99.90
2997;DHT22;1508;48.744;9.110;2023-02-01T02:02:57;3.60;99.90
2997;DHT22;1508;48.744;9.110;2023-02-01T02:05:46;3.50;99.90
2997;DHT22;1508;48.744;9.110;2023-02-01T02:08:33;3.50;99.90
2997;DHT22;1508;48.744;9.110;2023-02-01T02:11:19;3.50;99.90
2997;DHT22;1508;48.744;9.110;2023-02-01T02:14:07;3.50;99.90
2997;DHT22;1508;48.744;9.110;2023-02-01T02:32:43;3.60;99.90
2997;DHT22;1508;48.744;9.110;2023-02-01T02:35:13;3.60;99.90
2997;DHT22;1508;48.744;9.110;2023-02-01T02:43:53;3.60;99.90
2997;DHT22;1508;48.744;9.110;2023-02-01T02:46:48;3.50;99.90
2997;DHT22;1508;48.744;9.110;2023-02-01T02:49:44;3.50;99.90
2997;DHT22;1508;48.744;9.110;2023-02-01T02:52:33;3.60;99.90
2997;DHT22;1508;48.744;9.110;2023-02-01T02:55:22;3.60;99.90
2997;DHT22;1508;48.744;9.110;2023-02-01T02:58:10;3.60;99.90
2997;DHT22;1508;48.744;9.110;2023-02-01T03:00:56;3.60;99.90
2997;DHT22;1508;48.744;9.110;2023-02-01T03:03:43;3.60;99.90
2997;DHT22;1508;48.744;9.110;2023-02-01T03:06:32;3.60;99.90
2997;DHT22;1508;48.744;9.110;2023-02-01T03:09:26;3.60;99.90
2997;DHT22;1508;48.744;9.110;2023-02-01T03:12:13;3.50;99.90
2997;DHT22;1508;48.744;9.110;2023-02-01T03:15:07;3.50;99.90
2997;DHT22;1508;48.744;9.110;2023-02-01T03:17:55;3.60;99.90
2997;DHT22;1508;48.744;9.110;2023-02-01T03:20:46;3.60;99.90
2997;DHT22;1508;48.744;9.110;2023-02-01T03:23:35;3.60;99.90
2997;DHT22;1508;48.744;9.110;2023-02-01T03:26:22;3.60;99.90
2997;DHT22;1508;48.744;9.110;2023-02-01T03:29:14;3.60;99.90
2997;DHT22;1508;48.744;9.110;2023-02-01T03:32:01;3.70;99.90
2997;DHT22;1508;48.744;9.110;2023-02-01T03:34:48;3.70;99.90
2997;DHT22;1508;48.744;9.110;2023-02-01T03:37:35;3.60;99.90
2997;DHT22;1508;48.744;9.110;2023-02-01T03:40:21;3.60;99.90
2997;DHT22;1508;48.744;9.110;2023-02-01T03:43:09;3.60;99.90
2997;DHT22;1508;48.744;9.110;2023-02-01T03:46:01;3.50;99.90
2997;DHT22;1508;48.744;9.110;2023-02-01T03:48:50;3.50;99.90
2997;DHT22;1508;48.744;9.110;2023-02-01T03:51:38;3.50;99.90
2997;DHT22;1508;48.744;9.110;2023-02-01T03:54:27;3.50;99.90
2997;DHT22;1508;48.744;9.110;2023-02-01T03:57:16;3.50;99.90
2997;DHT22;1508;48.744;9.110;2023-02-01T04:00:10;3.50;99.90
2997;DHT22;1508;48.744;9.110;2023-02-01T04:03:00;3.50;99.90
2997;DHT22;1508;48.744;9.110;2023-02-01T04:05:48;3.50;99.90
2997;DHT22;1508;48.744;9.110;2023-02-01T04:08:34;3.60;99.90
2997;DHT22;1508;48.744;9.110;2023-02-01T04:11:20;3.60;99.90
2997;DHT22;1508;48.744;9.110;2023-02-01T04:14:06;3.70;99.90
2997;DHT22;1508;48.744;9.110;2023-02-01T04:16:52;3.70;99.90
2997;DHT22;1508;48.744;9.110;2023-02-01T04:19:38;3.70;99.90
2997;DHT22;1508;48.744;9.110;2023-02-01T04:22:23;3.80;99.90
2997;DHT22;1508;48.744;9.110;2023-02-01T04:25:10;3.80;99.90
2997;DHT22;1508;48.744;9.110;2023-02-01T04:27:56;3.80;99.90
2997;DHT22;1508;48.744;9.110;2023-02-01T04:30:41;3.90;99.90
2997;DHT22;1508;48.744;9.110;2023-02-01T04:33:27;3.90;99.90
2997;DHT22;1508;48.744;9.110;2023-02-01T04:36:13;4.00;99.90
2997;DHT22;1508;48.744;9.110;2023-02-01T04:38:59;4.00;99.90
2997;DHT22;1508;48.744;9.110;2023-02-01T04:41:45;4.00;99.90
2997;DHT22;1508;48.744;9.110;2023-02-01T04:44:30;4.00;99.90
2997;DHT22;1508;48.744;9.110;2023-02-01T04:47:16;4.00;99.90
2997;DHT22;1508;48.744;9.110;2023-02-01T04:50:02;4.00;99.90
2997;DHT22;1508;48.744;9.110;2023-02-01T04:52:49;4.00;99.90
2997;DHT22;1508;48.744;9.110;2023-02-01T04:55:34;4.00;99.90
2997;DHT22;1508;48.744;9.110;2023-02-01T04:58:20;4.00;99.90
2997;DHT22;1508;48.744;9.110;2023-02-01T05:01:06;4.00;99.90
2997;DHT22;1508;48.744;9.110;2023-02-01T05:03:52;4.00;99.90
2997;DHT22;1508;48.744;9.110;2023-02-01T05:06:38;4.10;99.90
2997;DHT22;1508;48.744;9.110;2023-02-01T05:09:24;4.10;99.90
2997;DHT22;1508;48.744;9.110;2023-02-01T05:12:10;4.00;99.90
2997;DHT22;1508;48.744;9.110;2023-02-01T05:14:56;4.10;99.90
2997;DHT22;1508;48.744;9.110;2023-02-01T05:17:41;4.10;99.90
2997;DHT22;1508;48.744;9.110;2023-02-01T05:20:27;4.10;99.90
2997;DHT22;1508;48.744;9.110;2023-02-01T05:23:13;4.00;99.90
2997;DHT22;1508;48.744;9.110;2023-02-01T05:26:00;4.10;99.90
2997;DHT22;1508;48.744;9.110;2023-02-01T05:28:46;4.10;99.90
2997;DHT22;1508;48.744;9.110;2023-02-01T05:31:32;4.00;99.90
2997;DHT22;1508;48.744;9.110;2023-02-01T05:34:18;4.00;99.90
2997;DHT22;1508;48.744;9.110;2023-02-01T05:37:03;4.00;99.90
2997;DHT22;1508;48.744;9.110;2023-02-01T05:39:49;4.00;99.90
2997;DHT22;1508;48.744;9.110;2023-02-01T05:42:35;4.00;99.90
2997;DHT22;1508;48.744;9.110;2023-02-01T05:45:21;4.00;99.90
2997;DHT22;1508;48.744;9.110;2023-02-01T05:48:07;4.00;99.90
2997;DHT22;1508;48.744;9.110;2023-02-01T05:50:53;3.90;99.90
2997;DHT22;1508;48.744;9.110;2023-02-01T05:53:39;4.00;99.90
2997;DHT22;1508;48.744;9.110;2023-02-01T05:56:24;4.10;99.90
2997;DHT22;1508;48.744;9.110;2023-02-01T05:59:10;4.10;99.90
2997;DHT22;1508;48.744;9.110;2023-02-01T06:01:56;4.00;99.90
2997;DHT22;1508;48.744;9.110;2023-02-01T06:04:42;4.00;99.90
2997;DHT22;1508;48.744;9.110;2023-02-01T06:07:28;4.00;99.90
2997;DHT22;1508;48.744;9.110;2023-02-01T06:10:14;3.90;99.90
2997;DHT22;1508;48.744;9.110;2023-02-01T06:13:00;3.90;99.90
2997;DHT22;1508;48.744;9.110;2023-02-01T06:15:46;3.90;99.90
2997;DHT22;1508;48.744;9.110;2023-02-01T06:18:31;3.80;99.90
2997;DHT22;1508;48.744;9.110;2023-02-01T06:21:17;3.80;99.90
2997;DHT22;1508;48.744;9.110;2023-02-01T06:24:03;3.80;99.90
2997;DHT22;1508;48.744;9.110;2023-02-01T06:26:49;3.70;99.90
2997;DHT22;1508;48.744;9.110;2023-02-01T06:29:35;3.80;99.90
2997;DHT22;1508;48.744;9.110;2023-02-01T06:32:21;3.80;99.90
2997;DHT22;1508;48.744;9.110;2023-02-01T06:35:08;3.70;99.90
2997;DHT22;1508;48.744;9.110;2023-02-01T06:37:54;3.80;99.90
2997;DHT22;1508;48.744;9.110;2023-02-01T06:40:40;3.70;99.90
2997;DHT22;1508;48.744;9.110;2023-02-01T06:43:27;3.70;99.90
2997;DHT22;1508;48.744;9.110;2023-02-01T06:46:14;3.80;99.90
2997;DHT22;1508;48.744;9.110;2023-02-01T06:48:59;3.80;99.90
2997;DHT22;1508;48.744;9.110;2023-02-01T06:51:45;3.80;99.90
2997;DHT22;1508;48.744;9.110;2023-02-01T06:54:31;3.80;99.90
2997;DHT22;1508;48.744;9.110;2023-02-01T06:57:17;3.90;99.90
2997;DHT22;1508;48.744;9.110;2023-02-01T07:00:04;4.00;99.90
2997;DHT22;1508;48.744;9.110;2023-02-01T07:02:50;4.00;99.90
2997;DHT22;1508;48.744;9.110;2023-02-01T07:05:36;4.10;99.90
2997;DHT22;1508;48.744;9.110;2023-02-01T07:08:22;4.10;99.90
2997;DHT22;1508;48.744;9.110;2023-02-01T07:11:10;4.10;99.90
2997;DHT22;1508;48.744;9.110;2023-02-01T07:13:56;4.10;99.90
2997;DHT22;1508;48.744;9.110;2023-02-01T07:16:42;4.10;99.90
2997;DHT22;1508;48.744;9.110;2023-02-01T07:19:28;4.20;99.90
2997;DHT22;1508;48.744;9.110;2023-02-01T07:22:17;4.20;99.90
2997;DHT22;1508;48.744;9.110;2023-02-01T07:25:03;4.20;99.90
2997;DHT22;1508;48.744;9.110;2023-02-01T07:27:49;4.20;99.90
2997;DHT22;1508;48.744;9.110;2023-02-01T07:30:35;4.30;99.90
2997;DHT22;1508;48.744;9.110;2023-02-01T07:33:23;4.30;99.90
2997;DHT22;1508;48.744;9.110;2023-02-01T07:36:14;4.40;99.90
2997;DHT22;1508;48.744;9.110;2023-02-01T07:39:00;4.50;99.90
2997;DHT22;1508;48.744;9.110;2023-02-01T07:41:46;4.50;99.90
2997;DHT22;1508;48.744;9.110;2023-02-01T07:44:32;4.40;99.90
2997;DHT22;1508;48.744;9.110;2023-02-01T07:47:18;4.50;99.90
2997;DHT22;1508;48.744;9.110;2023-02-01T07:50:04;4.60;99.90
2997;DHT22;1508;48.744;9.110;2023-02-01T07:52:50;4.50;99.90
2997;DHT22;1508;48.744;9.110;2023-02-01T07:55:39;4.60;99.90
2997;DHT22;1508;48.744;9.110;2023-02-01T07:58:26;4.70;99.90
2997;DHT22;1508;48.744;9.110;2023-02-01T08:01:16;4.70;99.90
2997;DHT22;1508;48.744;9.110;2023-02-01T08:04:03;4.70;99.90
2997;DHT22;1508;48.744;9.110;2023-02-01T08:06:49;4.70;99.90
2997;DHT22;1508;48.744;9.110;2023-02-01T08:09:35;4.70;99.90
2997;DHT22;1508;48.744;9.110;2023-02-01T08:12:21;4.70;99.90
2997;DHT22;1508;48.744;9.110;2023-02-01T08:15:07;4.80;99.90
2997;DHT22;1508;48.744;9.110;2023-02-01T08:17:53;4.80;99.90
2997;DHT22;1508;48.744;9.110;2023-02-01T08:20:39;4.80;99.90
2997;DHT22;1508;48.744;9.110;2023-02-01T08:23:24;4.80;99.90
2997;DHT22;1508;48.744;9.110;2023-02-01T08:29:01;4.90;99.90
2997;DHT22;1508;48.744;9.110;2023-02-01T08:31:48;5.00;99.90
2997;DHT22;1508;48.744;9.110;2023-02-01T08:34:34;5.00;99.90
2997;DHT22;1508;48.744;9.110;2023-02-01T08:37:19;5.10;99.90
2997;DHT22;1508;48.744;9.110;2023-02-01T08:40:06;5.10;99.90
2997;DHT22;1508;48.744;9.110;2023-02-01T08:42:52;5.20;99.90
2997;DHT22;1508;48.744;9.110;2023-02-01T08:45:39;5.30;99.90
2997;DHT22;1508;48.744;9.110;2023-02-01T08:48:25;5.60;99.90
2997;DHT22;1508;48.744;9.110;2023-02-01T08:51:12;5.70;99.90
2997;DHT22;1508;48.744;9.110;2023-02-01T08:53:58;5.70;99.90
2997;DHT22;1508;48.744;9.110;2023-02-01T08:56:44;5.60;99.90
2997;DHT22;1508;48.744;9.110;2023-02-01T08:59:30;5.40;99.90
2997;DHT22;1508;48.744;9.110;2023-02-01T09:02:17;5.30;99.90
2997;DHT22;1508;48.744;9.110;2023-02-01T09:05:03;5.50;99.90
2997;DHT22;1508;48.744;9.110;2023-02-01T09:07:49;5.50;99.90
2997;DHT22;1508;48.744;9.110;2023-02-01T09:10:36;5.40;99.90
2997;DHT22;1508;48.744;9.110;2023-02-01T09:13:22;5.40;99.90
2997;DHT22;1508;48.744;9.110;2023-02-01T09:16:08;5.30;99.90
2997;DHT22;1508;48.744;9.110;2023-02-01T09:18:54;5.30;99.90
2997;DHT22;1508;48.744;9.110;2023-02-01T09:21:40;5.20;99.90
2997;DHT22;1508;48.744;9.110;2023-02-01T09:24:26;5.10;99.90
2997;DHT22;1508;48.744;9.110;2023-02-01T09:27:12;5.00;99.90
2997;DHT22;1508;48.744;9.110;2023-02-01T09:29:58;5.00;99.90
2997;DHT22;1508;48.744;9.110;2023-02-01T09:32:44;5.10;99.90
2997;DHT22;1508;48.744;9.110;2023-02-01T09:35:30;5.20;99.90
2997;DHT22;1508;48.744;9.110;2023-02-01T09:38:16;5.20;99.90
2997;DHT22;1508;48.744;9.110;2023-02-01T09:42:14;5.40;99.90
2997;DHT22;1508;48.744;9.110;2023-02-01T09:47:54;5.50;99.90
2997;DHT22;1508;48.744;9.110;2023-02-01T09:50:47;5.40;99.90
2997;DHT22;1508;48.744;9.110;2023-02-01T09:53:40;5.50;99.90
2997;DHT22;1508;48.744;9.110;2023-02-01T09:56:39;5.60;99.90
2997;DHT22;1508;48.744;9.110;2023-02-01T09:59:41;5.60;99.90
2997;DHT22;1508;48.744;9.110;2023-02-01T10:02:28;5.60;99.90
2997;DHT22;1508;48.744;9.110;2023-02-01T10:05:18;5.60;99.90
2997;DHT22;1508;48.744;9.110;2023-02-01T10:26:46;5.40;99.90
2997;DHT22;1508;48.744;9.110;2023-02-01T10:29:37;5.50;99.90
2997;DHT22;1508;48.744;9.110;2023-02-01T10:32:34;5.60;99.90
2997;DHT22;1508;48.744;9.110;2023-02-01T10:35:31;5.60;99.90
2997;DHT22;1508;48.744;9.110;2023-02-01T10:38:30;5.70;99.90
2997;DHT22;1508;48.744;9.110;2023-02-01T10:41:21;5.50;99.90
2997;DHT22;1508;48.744;9.110;2023-02-01T10:44:20;5.50;99.90
2997;DHT22;1508;48.744;9.110;2023-02-01T10:47:09;5.40;99.90
2997;DHT22;1508;48.744;9.110;2023-02-01T10:50:04;5.50;99.90
2997;DHT22;1508;48.744;9.110;2023-02-01T10:53:01;5.60;99.90
2997;DHT22;1508;48.744;9.110;2023-02-01T10:55:53;5.60;99.90
2997;DHT22;1508;48.744;9.110;2023-02-01T10:58:45;5.70;99.90
2997;DHT22;1508;48.744;9.110;2023-02-01T11:01:34;5.80;99.90
2997;DHT22;1508;48.744;9.110;2023-02-01T11:04:24;5.70;99.90
2997;DHT22;1508;48.744;9.110;2023-02-01T11:07:23;5.60;99.90
2997;DHT22;1508;48.744;9.110;2023-02-01T11:13:29;5.90;99.90
2997;DHT22;1508;48.744;9.110;2023-02-01T11:16:15;5.90;99.90
2997;DHT22;1508;48.744;9.110;2023-02-01T11:19:01;5.90;99.90
2997;DHT22;1508;48.744;9.110;2023-02-01T11:21:52;5.80;99.90
2997;DHT22;1508;48.744;9.110;2023-02-01T11:24:39;5.80;99.90
2997;DHT22;1508;48.744;9.110;2023-02-01T11:27:26;5.80;99.90
2997;DHT22;1508;48.744;9.110;2023-02-01T11:30:42;5.70;99.90
2997;DHT22;1508;48.744;9.110;2023-02-01T11:33:32;5.80;99.90
2997;DHT22;1508;48.744;9.110;2023-02-01T11:36:31;5.70;99.90
2997;DHT22;1508;48.744;9.110;2023-02-01T11:42:14;5.80;99.90
2997;DHT22;1508;48.744;9.110;2023-02-01T11:48:15;5.80;99.90
2997;DHT22;1508;48.744;9.110;2023-02-01T11:54:23;6.00;99.90
2997;DHT22;1508;48.744;9.110;2023-02-01T11:57:31;6.00;99.90
2997;DHT22;1508;48.744;9.110;2023-02-01T12:06:54;5.90;99.90
2997;DHT22;1508;48.744;9.110;2023-02-01T12:16:08;5.90;99.90
2997;DHT22;1508;48.744;9.110;2023-02-01T12:19:12;5.80;99.90
2997;DHT22;1508;48.744;9.110;2023-02-01T12:29:01;5.70;99.90
2997;DHT22;1508;48.744;9.110;2023-02-01T12:38:44;5.40;99.90
2997;DHT22;1508;48.744;9.110;2023-02-01T12:48:21;5.30;99.90
2997;DHT22;1508;48.744;9.110;2023-02-01T12:51:13;5.40;99.90
2997;DHT22;1508;48.744;9.110;2023-02-01T12:57:08;5.60;99.90
2997;DHT22;1508;48.744;9.110;2023-02-01T13:03:15;5.40;99.90
2997;DHT22;1508;48.744;9.110;2023-02-01T13:06:18;5.30;99.90
2997;DHT22;1508;48.744;9.110;2023-02-01T13:11:57;5.30;99.90
2997;DHT22;1508;48.744;9.110;2023-02-01T13:14:49;5.20;99.90
2997;DHT22;1508;48.744;9.110;2023-02-01T13:17:39;5.20;99.90
2997;DHT22;1508;48.744;9.110;2023-02-01T13:20:35;5.20;99.90
2997;DHT22;1508;48.744;9.110;2023-02-01T13:23:35;5.30;99.90
2997;DHT22;1508;48.744;9.110;2023-02-01T13:26:21;5.20;99.90
2997;DHT22;1508;48.744;9.110;2023-02-01T13:29:10;5.20;99.90
2997;DHT22;1508;48.744;9.110;2023-02-01T13:34:55;5.20;99.90
2997;DHT22;1508;48.744;9.110;2023-02-01T13:44:19;5.30;99.90
2997;DHT22;1508;48.744;9.110;2023-02-01T13:50:23;5.30;99.90
2997;DHT22;1508;48.744;9.110;2023-02-01T13:53:18;5.40;99.90
2997;DHT22;1508;48.744;9.110;2023-02-01T13:56:11;5.50;99.90
2997;DHT22;1508;48.744;9.110;2023-02-01T14:08:13;5.20;99.90
2997;DHT22;1508;48.744;9.110;2023-02-01T14:11:00;5.30;99.90
2997;DHT22;1508;48.744;9.110;2023-02-01T14:13:46;5.30;99.90
2997;DHT22;1508;48.744;9.110;2023-02-01T14:16:32;5.30;99.90
2997;DHT22;1508;48.744;9.110;2023-02-01T14:19:28;5.20;99.90
2997;DHT22;1508;48.744;9.110;2023-02-01T14:25:16;5.30;99.90
2997;DHT22;1508;48.744;9.110;2023-02-01T14:28:11;5.30;99.90
2997;DHT22;1508;48.744;9.110;2023-02-01T14:30:58;5.20;99.90
2997;DHT22;1508;48.744;9.110;2023-02-01T14:33:44;5.20;99.90
2997;DHT22;1508;48.744;9.110;2023-02-01T14:36:43;5.30;99.90
2997;DHT22;1508;48.744;9.110;2023-02-01T14:39:46;5.30;99.90
2997;DHT22;1508;48.744;9.110;2023-02-01T14:42:51;5.40;99.90
2997;DHT22;1508;48.744;9.110;2023-02-01T14:51:13;5.20;99.90
2997;DHT22;1508;48.744;9.110;2023-02-01T14:54:00;5.20;99.90
2997;DHT22;1508;48.744;9.110;2023-02-01T14:56:46;5.10;99.90
2997;DHT22;1508;48.744;9.110;2023-02-01T14:59:33;5.10;99.90
2997;DHT22;1508;48.744;9.110;2023-02-01T15:02:25;5.10;99.90
2997;DHT22;1508;48.744;9.110;2023-02-01T15:05:44;5.10;99.90
2997;DHT22;1508;48.744;9.110;2023-02-01T15:08:37;5.20;99.90
2997;DHT22;1508;48.744;9.110;2023-02-01T15:11:24;5.20;99.90
2997;DHT22;1508;48.744;9.110;2023-02-01T15:14:14;5.20;99.90
2997;DHT22;1508;48.744;9.110;2023-02-01T15:17:00;5.20;99.90
2997;DHT22;1508;48.744;9.110;2023-02-01T15:19:53;5.10;99.90
2997;DHT22;1508;48.744;9.110;2023-02-01T15:22:39;5.10;99.90
2997;DHT22;1508;48.744;9.110;2023-02-01T15:25:35;5.10;99.90
2997;DHT22;1508;48.744;9.110;2023-02-01T15:28:21;5.10;99.90
2997;DHT22;1508;48.744;9.110;2023-02-01T15:31:07;5.10;99.90
2997;DHT22;1508;48.744;9.110;2023-02-01T15:33:57;5.10;99.90
2997;DHT22;1508;48.744;9.110;2023-02-01T15:36:44;5.00;99.90
2997;DHT22;1508;48.744;9.110;2023-02-01T15:39:30;5.00;99.90
2997;DHT22;1508;48.744;9.110;2023-02-01T15:42:17;5.00;99.90
2997;DHT22;1508;48.744;9.110;2023-02-01T15:45:03;5.00;99.90
2997;DHT22;1508;48.744;9.110;2023-02-01T15:47:51;5.00;99.90
2997;DHT22;1508;48.744;9.110;2023-02-01T15:50:39;5.10;99.90
2997;DHT22;1508;48.744;9.110;2023-02-01T15:53:26;5.10;99.90
2997;DHT22;1508;48.744;9.110;2023-02-01T15:56:12;5.20;99.90
2997;DHT22;1508;48.744;9.110;2023-02-01T15:59:00;5.20;99.90
2997;DHT22;1508;48.744;9.110;2023-02-01T16:01:47;5.20;99.90
2997;DHT22;1508;48.744;9.110;2023-02-01T16:04:47;5.10;99.90
2997;DHT22;1508;48.744;9.110;2023-02-01T16:07:33;5.10;99.90
2997;DHT22;1508;48.744;9.110;2023-02-01T16:10:24;5.10;99.90
2997;DHT22;1508;48.744;9.110;2023-02-01T16:13:11;5.10;99.90
2997;DHT22;1508;48.744;9.110;2023-02-01T16:15:57;5.00;99.90
2997;DHT22;1508;48.744;9.110;2023-02-01T16:18:43;5.00;99.90
2997;DHT22;1508;48.744;9.110;2023-02-01T16:21:29;5.00;99.90
2997;DHT22;1508;48.744;9.110;2023-02-01T16:24:15;5.00;99.90
2997;DHT22;1508;48.744;9.110;2023-02-01T16:27:01;5.00;99.90
2997;DHT22;1508;48.744;9.110;2023-02-01T16:29:46;5.00;99.90
2997;DHT22;1508;48.744;9.110;2023-02-01T16:32:32;5.10;99.90
2997;DHT22;1508;48.744;9.110;2023-02-01T16:35:23;5.00;99.90
2997;DHT22;1508;48.744;9.110;2023-02-01T16:38:12;5.00;99.90
2997;DHT22;1508;48.744;9.110;2023-02-01T16:40:57;5.00;99.90
2997;DHT22;1508;48.744;9.110;2023-02-01T16:43:44;5.00;99.90
2997;DHT22;1508;48.744;9.110;2023-02-01T16:46:33;5.00;99.90
2997;DHT22;1508;48.744;9.110;2023-02-01T16:49:22;5.00;99.90
2997;DHT22;1508;48.744;9.110;2023-02-01T16:52:21;5.00;99.90
2997;DHT22;1508;48.744;9.110;2023-02-01T16:55:13;5.00;99.90
2997;DHT22;1508;48.744;9.110;2023-02-01T16:57:59;5.00;99.90
2997;DHT22;1508;48.744;9.110;2023-02-01T17:00:46;5.00;99.90
2997;DHT22;1508;48.744;9.110;2023-02-01T17:03:32;4.90;99.90
2997;DHT22;1508;48.744;9.110;2023-02-01T17:06:23;5.00;99.90
2997;DHT22;1508;48.744;9.110;2023-02-01T17:09:09;4.90;99.90
2997;DHT22;1508;48.744;9.110;2023-02-01T17:11:55;4.90;99.90
2997;DHT22;1508;48.744;9.110;2023-02-01T17:14:41;4.90;99.90
2997;DHT22;1508;48.744;9.110;2023-02-01T17:17:32;4.90;99.90
2997;DHT22;1508;48.744;9.110;2023-02-01T17:20:24;4.90;99.90
2997;DHT22;1508;48.744;9.110;2023-02-01T17:23:12;4.80;99.90
2997;DHT22;1508;48.744;9.110;2023-02-01T17:25:58;4.80;99.90
2997;DHT22;1508;48.744;9.110;2023-02-01T17:28:44;4.80;99.90
2997;DHT22;1508;48.744;9.110;2023-02-01T17:31:30;4.70;99.90
2997;DHT22;1508;48.744;9.110;2023-02-01T17:34:18;4.80;99.90
2997;DHT22;1508;48.744;9.110;2023-02-01T17:37:05;4.80;99.90
2997;DHT22;1508;48.744;9.110;2023-02-01T17:39:54;4.80;99.90
2997;DHT22;1508;48.744;9.110;2023-02-01T17:42:40;4.80;99.90
2997;DHT22;1508;48.744;9.110;2023-02-01T17:45:42;4.80;99.90
2997;DHT22;1508;48.744;9.110;2023-02-01T17:48:29;4.90;99.90
2997;DHT22;1508;48.744;9.110;2023-02-01T17:51:18;4.90;99.90
2997;DHT22;1508;48.744;9.110;2023-02-01T17:54:04;4.90;99.90
2997;DHT22;1508;48.744;9.110;2023-02-01T17:56:50;4.90;99.90
2997;DHT22;1508;48.744;9.110;2023-02-01T17:59:36;4.70;99.90
2997;DHT22;1508;48.744;9.110;2023-02-01T18:02:23;4.70;99.90
2997;DHT22;1508;48.744;9.110;2023-02-01T18:05:39;4.70;99.90
2997;DHT22;1508;48.744;9.110;2023-02-01T18:08:28;4.70;99.90
2997;DHT22;1508;48.744;9.110;2023-02-01T18:11:17;4.70;99.90
2997;DHT22;1508;48.744;9.110;2023-02-01T18:14:03;4.70;99.90
2997;DHT22;1508;48.744;9.110;2023-02-01T18:16:49;4.70;99.90
2997;DHT22;1508;48.744;9.110;2023-02-01T18:19:35;4.70;99.90
2997;DHT22;1508;48.744;9.110;2023-02-01T18:22:22;4.80;99.90
2997;DHT22;1508;48.744;9.110;2023-02-01T18:25:29;4.80;99.90
2997;DHT22;1508;48.744;9.110;2023-02-01T18:28:15;4.90;99.90
2997;DHT22;1508;48.744;9.110;2023-02-01T18:31:04;4.90;99.90
2997;DHT22;1508;48.744;9.110;2023-02-01T18:33:51;4.90;99.90
2997;DHT22;1508;48.744;9.110;2023-02-01T18:36:37;4.90;99.90
2997;DHT22;1508;48.744;9.110;2023-02-01T18:39:23;4.90;99.90
2997;DHT22;1508;48.744;9.110;2023-02-01T18:42:09;4.90;99.90
2997;DHT22;1508;48.744;9.110;2023-02-01T18:44:54;4.90;99.90
2997;DHT22;1508;48.744;9.110;2023-02-01T18:47:40;4.90;99.90
2997;DHT22;1508;48.744;9.110;2023-02-01T18:50:28;4.90;99.90
2997;DHT22;1508;48.744;9.110;2023-02-01T18:53:18;4.90;99.90
2997;DHT22;1508;48.744;9.110;2023-02-01T18:56:04;5.40;99.90
2997;DHT22;1508;48.744;9.110;2023-02-01T18:58:50;5.80;99.90
2997;DHT22;1508;48.744;9.110;2023-02-01T19:01:36;6.00;99.90
2997;DHT22;1508;48.744;9.110;2023-02-01T19:04:22;5.80;99.90
2997;DHT22;1508;48.744;9.110;2023-02-01T19:07:08;5.70;99.90
2997;DHT22;1508;48.744;9.110;2023-02-01T19:09:54;5.70;99.90
2997;DHT22;1508;48.744;9.110;2023-02-01T19:12:40;5.50;99.90
2997;DHT22;1508;48.744;9.110;2023-02-01T19:15:26;5.30;99.90
2997;DHT22;1508;48.744;9.110;2023-02-01T19:18:11;5.20;99.90
2997;DHT22;1508;48.744;9.110;2023-02-01T19:21:02;5.20;99.90
2997;DHT22;1508;48.744;9.110;2023-02-01T19:23:48;5.10;99.90
2997;DHT22;1508;48.744;9.110;2023-02-01T19:26:34;5.00;99.90
2997;DHT22;1508;48.744;9.110;2023-02-01T19:29:20;5.00;99.90
2997;DHT22;1508;48.744;9.110;2023-02-01T19:32:06;5.00;99.90
2997;DHT22;1508;48.744;9.110;2023-02-01T19:34:52;5.00;99.90
2997;DHT22;1508;48.744;9.110;2023-02-01T19:37:41;5.00;99.90
2997;DHT22;1508;48.744;9.110;2023-02-01T19:40:27;5.00;99.90
2997;DHT22;1508;48.744;9.110;2023-02-01T19:43:13;5.00;99.90
2997;DHT22;1508;48.744;9.110;2023-02-01T19:45:59;5.00;99.90
2997;DHT22;1508;48.744;9.110;2023-02-01T19:48:45;5.00;99.90
2997;DHT22;1508;48.744;9.110;2023-02-01T19:51:30;4.90;99.90
2997;DHT22;1508;48.744;9.110;2023-02-01T19:54:16;4.90;99.90
2997;DHT22;1508;48.744;9.110;2023-02-01T19:57:02;4.90;99.90
2997;DHT22;1508;48.744;9.110;2023-02-01T19:59:48;4.90;99.90
2997;DHT22;1508;48.744;9.110;2023-02-01T20:02:34;4.90;99.90
2997;DHT22;1508;48.744;9.110;2023-02-01T20:05:20;4.90;99.90
2997;DHT22;1508;48.744;9.110;2023-02-01T20:08:05;4.90;99.90
2997;DHT22;1508;48.744;9.110;2023-02-01T20:10:51;4.90;99.90
2997;DHT22;1508;48.744;9.110;2023-02-01T20:13:37;4.90;99.90
2997;DHT22;1508;48.744;9.110;2023-02-01T20:16:23;4.90;99.90
2997;DHT22;1508;48.744;9.110;2023-02-01T20:19:10;4.90;99.90
2997;DHT22;1508;48.744;9.110;2023-02-01T20:21:56;4.90;99.90
2997;DHT22;1508;48.744;9.110;2023-02-01T20:24:42;4.90;99.90
2997;DHT22;1508;48.744;9.110;2023-02-01T20:27:28;4.90;99.90
2997;DHT22;1508;48.744;9.110;2023-02-01T20:30:14;4.90;99.90
2997;DHT22;1508;48.744;9.110;2023-02-01T20:32:59;4.90;99.90
2997;DHT22;1508;48.744;9.110;2023-02-01T20:35:45;5.00;99.90
2997;DHT22;1508;48.744;9.110;2023-02-01T20:38:32;5.00;99.90
2997;DHT22;1508;48.744;9.110;2023-02-01T20:41:19;5.00;99.90
2997;DHT22;1508;48.744;9.110;2023-02-01T20:44:05;5.00;99.90
2997;DHT22;1508;48.744;9.110;2023-02-01T20:46:51;5.00;99.90
2997;DHT22;1508;48.744;9.110;2023-02-01T20:49:36;5.00;99.90
2997;DHT22;1508;48.744;9.110;2023-02-01T20:52:24;5.00;99.90
2997;DHT22;1508;48.744;9.110;2023-02-01T20:55:09;5.10;99.90